Time;durP1;ratioP1;P1;durP2;ratioP2;P2;SDS_P1;SDS_P2;PMS_P1;PMS_P2;Temp;Humidity;BMP_temperature;BMP_pressure;BME280_temperature;BME280_humidity;BME280_pressure;Samples;Min_cycle;Max_cycle;Signal;HPM_P1;HPM_P2
2021/09/21 00:00:47;;;;;;;10.50;9.40;;;;;;;16.34;58.69;97306.00;5096521;28;20263;-63
2021/09/21 00:03:12;;;;;;;10.13;8.27;;;;;;;16.32;58.80;97302.72;5092352;28;20191;-65
2021/09/21 00:05:38;;;;;;;11.70;9.20;;;;;;;16.28;58.44;97296.97;5092523;28;20186;-67
2021/09/21 00:08:04;;;;;;;10.17;9.17;;;;;;;16.39;58.04;97297.50;5091278;28;20210;-63
2021/09/21 00:10:31;;;;;;;9.60;8.63;;;;;;;16.15;58.42;97296.81;5091590;28;20202;-65
2021/09/21 00:12:57;;;;;;;15.13;9.67;;;;;;;16.19;58.13;97286.69;5092211;28;20446;-65
2021/09/21 00:15:22;;;;;;;10.63;9.00;;;;;;;15.88;58.97;97300.97;5090536;28;20420;-63
2021/09/21 00:17:50;;;;;;;10.17;9.00;;;;;;;16.26;57.79;97280.47;5092209;28;20827;-64
2021/09/21 00:20:17;;;;;;;9.70;8.70;;;;;;;16.34;57.67;97284.84;5091834;28;20193;-65
2021/09/21 00:22:43;;;;;;;10.37;9.23;;;;;;;16.32;57.50;97291.31;5091926;28;20415;-66
2021/09/21 00:25:10;;;;;;;9.90;8.90;;;;;;;15.74;59.32;97306.06;5091525;28;20990;-63
2021/09/21 00:27:36;;;;;;;10.43;9.33;;;;;;;15.57;59.81;97302.75;5088323;28;20538;-65
2021/09/21 00:30:03;;;;;;;10.47;9.37;;;;;;;15.65;59.75;97296.56;5089492;28;21010;-65
2021/09/21 00:32:29;;;;;;;10.17;9.13;;;;;;;15.40;60.29;97296.81;5092128;28;20269;-65
2021/09/21 00:34:54;;;;;;;13.27;10.40;;;;;;;15.81;59.50;97292.94;5091491;28;20573;-64
2021/09/21 00:37:20;;;;;;;11.47;9.40;;;;;;;15.86;58.73;97295.84;5053367;28;1097645;-65
2021/09/21 00:39:46;;;;;;;12.90;9.60;;;;;;;15.76;59.35;97304.03;5092735;28;20198;-65
2021/09/21 00:42:13;;;;;;;11.07;9.77;;;;;;;15.57;60.10;97308.03;5092892;28;20190;-66
2021/09/21 00:44:40;;;;;;;17.90;9.40;;;;;;;15.70;59.82;97310.06;5092317;28;20503;-64
2021/09/21 00:47:08;;;;;;;10.83;9.73;;;;;;;15.91;59.03;97311.16;5092183;28;20452;-65
2021/09/21 00:49:34;;;;;;;13.10;10.27;;;;;;;15.22;61.05;97322.75;5092119;28;20466;-63
2021/09/21 00:52:00;;;;;;;14.17;11.50;;;;;;;14.84;62.58;97311.19;5092077;28;20925;-65
2021/09/21 00:54:27;;;;;;;15.43;11.70;;;;;;;14.86;62.58;97322.41;5074261;28;20860;-65
2021/09/21 00:56:54;;;;;;;12.30;11.00;;;;;;;15.31;61.33;97324.31;5092073;28;20763;-66
2021/09/21 00:59:20;;;;;;;17.40;10.30;;;;;;;14.92;62.56;97322.66;5088593;28;20443;-63
2021/09/21 01:01:46;;;;;;;16.30;11.20;;;;;;;15.36;61.12;97314.06;5092421;28;20438;-65
2021/09/21 01:04:11;;;;;;;16.37;10.90;;;;;;;14.99;62.56;97313.06;5097394;28;20186;-67
2021/09/21 01:06:37;;;;;;;12.90;11.30;;;;;;;15.13;62.25;97314.91;5090113;28;20538;-65
2021/09/21 01:09:03;;;;;;;13.83;11.30;;;;;;;15.05;62.95;97320.25;5091102;28;20747;-64
2021/09/21 01:11:29;;;;;;;14.00;11.23;;;;;;;15.34;61.85;97318.69;5091876;28;20845;-65
2021/09/21 01:13:54;;;;;;;12.80;10.97;;;;;;;15.57;61.30;97313.31;5090997;28;20423;-64
2021/09/21 01:16:21;;;;;;;14.33;11.80;;;;;;;14.87;63.27;97313.47;5091901;28;20212;-65
2021/09/21 01:18:47;;;;;;;13.50;10.50;;;;;;;14.69;64.21;97315.59;5092115;28;20208;-64
2021/09/21 01:21:13;;;;;;;13.17;11.73;;;;;;;14.83;64.06;97311.34;5087720;28;20432;-66
2021/09/21 01:23:51;;;;;;;13.90;11.37;;;;;;;15.01;63.46;97316.31;5091832;28;20455;-63
2021/09/21 01:26:18;;;;;;;16.13;12.50;;;;;;;14.99;63.22;97308.59;5097993;28;20419;-66
2021/09/21 01:28:44;;;;;;;12.83;10.83;;;;;;;15.10;63.04;97315.28;5086230;28;20849;-63
2021/09/21 01:31:10;;;;;;;14.57;11.47;;;;;;;14.47;64.96;97320.66;5091546;28;20511;-64
2021/09/21 01:33:35;;;;;;;16.17;13.10;;;;;;;14.58;64.79;97320.25;5091967;28;20261;-65
2021/09/21 01:36:01;;;;;;;17.40;11.67;;;;;;;15.15;63.00;97312.91;5090922;28;20515;-64
2021/09/21 01:38:26;;;;;;;13.30;11.47;;;;;;;15.37;62.13;97310.41;5091350;28;20181;-67
2021/09/21 01:40:52;;;;;;;13.57;11.83;;;;;;;15.38;62.05;97317.31;5091021;28;20178;-65
2021/09/21 01:43:17;;;;;;;13.30;11.63;;;;;;;14.97;63.24;97315.06;5090361;28;20188;-65
2021/09/21 01:45:43;;;;;;;15.70;11.90;;;;;;;14.99;63.13;97313.06;5089837;28;20276;-65
2021/09/21 01:48:09;;;;;;;19.80;11.73;;;;;;;14.77;64.06;97317.34;5091195;28;20206;-67
2021/09/21 01:50:55;;;;;;;13.80;11.80;;;;;;;15.20;62.88;97320.28;5091269;28;20285;-64
2021/09/21 01:58:30;;;;;;;14.27;10.90;;;;;;;14.91;63.37;97321.88;5086440;28;20211;-67
2021/09/21 02:00:56;;;;;;;13.63;11.20;;;;;;;15.02;63.10;97323.25;5089998;28;20185;-65
2021/09/21 02:03:21;;;;;;;15.23;12.77;;;;;;;15.17;62.51;97324.09;5091474;28;20512;-65
2021/09/21 02:05:47;;;;;;;13.63;11.50;;;;;;;15.17;62.44;97329.38;5091603;28;20573;-64
2021/09/21 02:08:13;;;;;;;13.00;11.07;;;;;;;14.79;63.81;97326.72;5091095;28;20205;-65
2021/09/21 02:10:39;;;;;;;17.27;12.83;;;;;;;14.92;63.85;97327.94;5091445;28;20448;-64
2021/09/21 02:13:05;;;;;;;13.93;12.20;;;;;;;14.76;64.02;97331.53;5090623;28;20427;-65
2021/09/21 02:15:31;;;;;;;19.43;11.00;;;;;;;15.07;63.07;97326.19;5091117;28;20628;-66
2021/09/21 02:18:02;;;;;;;13.93;11.70;;;;;;;14.39;64.59;97318.88;5090968;28;20893;-65
2021/09/21 02:20:28;;;;;;;15.13;12.63;;;;;;;15.09;62.57;97328.63;5090404;28;20458;-65
2021/09/21 02:22:54;;;;;;;13.50;11.47;;;;;;;15.39;61.89;97318.94;5091183;28;20423;-65
2021/09/21 02:25:20;;;;;;;15.13;12.07;;;;;;;15.28;62.23;97317.59;5091335;28;20185;-64
2021/09/21 02:27:46;;;;;;;16.23;12.23;;;;;;;15.39;61.91;97326.88;5087806;28;20963;-66
2021/09/21 02:30:12;;;;;;;13.17;11.10;;;;;;;15.26;62.24;97330.13;5089962;28;20198;-64
2021/09/21 02:32:38;;;;;;;18.10;13.80;;;;;;;14.99;62.99;97328.91;5091214;28;20180;-65
2021/09/21 02:35:04;;;;;;;15.77;12.23;;;;;;;15.35;61.78;97336.97;5091133;28;20510;-67
2021/09/21 02:37:30;;;;;;;19.10;12.77;;;;;;;15.19;62.38;97339.75;5090684;28;20290;-65
2021/09/21 02:39:55;;;;;;;15.63;11.77;;;;;;;15.18;62.22;97331.03;5090832;28;20837;-67
2021/09/21 02:42:21;;;;;;;19.07;12.50;;;;;;;15.16;62.17;97335.66;5090874;28;20173;-64
2021/09/21 02:44:46;;;;;;;16.80;12.77;;;;;;;14.97;62.68;97330.88;5090832;28;20269;-65
2021/09/21 02:47:12;;;;;;;16.70;11.47;;;;;;;14.67;64.01;97338.66;5090427;28;20202;-66
2021/09/21 02:49:38;;;;;;;14.53;12.23;;;;;;;14.67;64.07;97336.00;5088950;28;20201;-66
2021/09/21 02:52:04;;;;;;;18.23;11.73;;;;;;;15.06;62.68;97335.09;5090796;28;20189;-64
2021/09/21 02:54:29;;;;;;;12.70;11.40;;;;;;;15.18;62.25;97332.88;5090800;28;20178;-64
2021/09/21 02:56:55;;;;;;;13.30;11.90;;;;;;;15.23;61.43;97338.41;5090387;28;20442;-66
2021/09/21 02:59:20;;;;;;;15.07;11.40;;;;;;;15.26;61.02;97340.69;5089154;28;20202;-66
2021/09/21 03:01:46;;;;;;;12.33;10.67;;;;;;;15.58;60.33;97348.50;5093582;28;20194;-65
2021/09/21 03:04:51;;;;;;;14.13;12.00;;;;;;;15.30;61.01;97346.44;5090566;28;20738;-67
2021/09/21 03:07:07;;;;;;;12.70;10.60;;;;;;;15.55;60.40;97338.28;5087590;28;20209;-64
2021/09/21 03:17:31;;;;;;;12.77;11.20;;;;;;;15.38;61.21;97338.44;5087213;28;20790;-66
2021/09/21 03:19:59;;;;;;;12.33;11.03;;;;;;;15.39;61.29;97337.44;5089749;28;20439;-67
2021/09/21 03:22:26;;;;;;;13.83;10.90;;;;;;;15.44;61.18;97332.44;5094975;28;20203;-63
2021/09/21 03:24:53;;;;;;;14.33;12.40;;;;;;;15.45;61.06;97339.38;5089749;28;20427;-66
2021/09/21 03:27:19;;;;;;;14.17;11.73;;;;;;;15.51;60.91;97338.63;5075254;28;20845;-64
2021/09/21 03:29:45;;;;;;;12.33;11.03;;;;;;;15.43;61.81;97340.56;5082760;28;20423;-65
2021/09/21 03:32:10;;;;;;;11.90;10.67;;;;;;;15.47;60.98;97347.94;5093579;28;20846;-66
2021/09/21 03:34:37;;;;;;;14.57;11.80;;;;;;;15.00;62.44;97348.97;5093306;28;20174;-66
2021/09/21 03:37:05;;;;;;;16.93;11.03;;;;;;;15.15;62.51;97365.69;5093260;28;20560;-66
2021/09/21 03:39:30;;;;;;;13.07;10.63;;;;;;;15.01;62.83;97358.53;5093324;28;20530;-65
2021/09/21 03:41:56;;;;;;;15.23;11.17;;;;;;;15.14;62.46;97356.13;5093422;28;21017;-66
2021/09/21 03:44:22;;;;;;;12.23;10.77;;;;;;;15.40;61.43;97357.56;5093720;28;20185;-65
2021/09/21 03:46:49;;;;;;;13.83;11.23;;;;;;;15.30;61.64;97357.84;5093522;28;20213;-64
2021/09/21 03:49:15;;;;;;;13.13;11.33;;;;;;;15.41;61.42;97350.47;5083764;28;20440;-66
2021/09/21 03:51:40;;;;;;;11.90;10.70;;;;;;;15.52;61.17;97350.03;5093514;28;20420;-66
2021/09/21 03:54:09;;;;;;;12.80;10.50;;;;;;;14.77;63.07;97360.38;5093001;28;20434;-65
2021/09/21 03:56:36;;;;;;;12.90;11.43;;;;;;;14.61;64.00;97368.38;5093330;28;20265;-64
2021/09/21 03:59:05;;;;;;;14.20;11.87;;;;;;;14.70;63.52;97373.44;5085067;28;20501;-66
2021/09/21 04:01:31;;;;;;;14.33;12.70;;;;;;;14.88;63.22;97367.88;5093398;28;20423;-66
2021/09/21 04:03:57;;;;;;;14.00;11.63;;;;;;;14.63;63.89;97371.63;5093163;28;20437;-65
2021/09/21 04:06:23;;;;;;;19.23;11.60;;;;;;;15.05;62.50;97375.69;5086691;28;20424;-64
2021/09/21 04:08:49;;;;;;;14.37;11.77;;;;;;;15.22;61.91;97370.28;5092367;28;20934;-68
2021/09/21 04:11:15;;;;;;;13.60;10.70;;;;;;;14.50;64.04;97375.66;5092053;28;20185;-66
2021/09/21 04:13:40;;;;;;;13.07;11.27;;;;;;;14.88;63.37;97388.97;5091241;28;20427;-64
2021/09/21 04:16:06;;;;;;;14.00;11.47;;;;;;;15.05;62.02;97378.31;5092834;28;20182;-67
2021/09/21 04:18:31;;;;;;;13.10;11.23;;;;;;;14.85;62.65;97384.06;5092410;28;20193;-64
2021/09/21 04:20:57;;;;;;;15.90;10.90;;;;;;;14.76;63.18;97387.75;5092790;28;20190;-65
2021/09/21 04:23:23;;;;;;;13.77;12.37;;;;;;;14.56;63.86;97404.00;5092879;28;20186;-65
2021/09/21 04:25:48;;;;;;;13.13;11.30;;;;;;;14.94;62.45;97392.72;5092300;28;20177;-69
2021/09/21 04:28:14;;;;;;;17.53;12.10;;;;;;;15.00;62.31;97383.28;5089791;28;20198;-65
2021/09/21 04:30:42;;;;;;;17.90;11.87;;;;;;;15.11;61.74;97390.00;5092995;28;20201;-64
2021/09/21 04:33:07;;;;;;;14.90;12.40;;;;;;;14.86;62.44;97388.34;5092206;28;20189;-66
2021/09/21 04:35:33;;;;;;;12.90;11.60;;;;;;;15.04;61.85;97389.88;5092508;28;20918;-66
2021/09/21 04:37:59;;;;;;;12.33;11.10;;;;;;;14.88;62.67;97402.19;5090590;28;20682;-66
2021/09/21 04:40:24;;;;;;;13.13;11.73;;;;;;;14.50;63.56;97409.94;5092650;28;20290;-64
2021/09/21 04:42:50;;;;;;;16.10;12.37;;;;;;;14.30;64.37;97401.66;5090881;28;20197;-63
2021/09/21 04:45:15;;;;;;;13.93;12.03;;;;;;;14.41;64.22;97410.97;5091946;28;20192;-67
2021/09/21 04:47:41;;;;;;;15.60;12.60;;;;;;;14.39;64.31;97412.97;5092007;28;20227;-65
2021/09/21 04:50:07;;;;;;;15.57;13.43;;;;;;;14.05;65.64;97421.97;5092441;28;20216;-65
2021/09/21 04:52:33;;;;;;;13.87;12.00;;;;;;;13.93;65.90;97424.13;5094284;28;20223;-65
2021/09/21 04:54:59;;;;;;;17.17;11.87;;;;;;;13.96;65.69;97429.91;5091888;28;20272;-63
2021/09/21 04:57:24;;;;;;;16.10;13.00;;;;;;;14.15;65.26;97437.63;5087676;28;20536;-65
2021/09/21 04:59:50;;;;;;;16.30;13.20;;;;;;;14.27;64.38;97442.34;5088853;28;20202;-64
2021/09/21 05:02:15;;;;;;;20.00;13.00;;;;;;;14.10;65.13;97457.38;5092143;28;20178;-63
2021/09/21 05:04:41;;;;;;;14.77;12.23;;;;;;;14.13;65.11;97464.94;5092137;28;20633;-64
2021/09/21 05:07:07;;;;;;;19.90;13.30;;;;;;;14.11;65.12;97469.56;5090766;28;20213;-64
2021/09/21 05:09:32;;;;;;;18.20;13.17;;;;;;;14.13;65.04;97472.03;5091373;28;20225;-63
2021/09/21 05:11:58;;;;;;;14.60;12.30;;;;;;;13.99;65.60;97476.19;5091103;28;20186;-65
2021/09/21 05:14:23;;;;;;;15.90;12.90;;;;;;;13.89;65.55;97476.34;5092288;28;20174;-65
2021/09/21 05:16:49;;;;;;;17.73;13.30;;;;;;;13.94;65.51;97478.47;5092236;28;20185;-66
2021/09/21 05:19:15;;;;;;;14.10;12.60;;;;;;;13.97;65.42;97481.63;5091601;28;20197;-64
2021/09/21 05:21:41;;;;;;;13.83;11.83;;;;;;;13.78;65.78;97495.13;5092299;28;20537;-64
2021/09/21 05:24:07;;;;;;;13.53;11.93;;;;;;;13.62;66.32;97488.88;5092713;28;20518;-64
2021/09/21 05:26:33;;;;;;;16.20;13.37;;;;;;;13.43;66.74;97491.84;5091103;28;20416;-64
2021/09/21 05:28:59;;;;;;;16.57;13.97;;;;;;;13.44;66.76;97488.22;5089730;28;20459;-64
2021/09/21 05:31:24;;;;;;;16.77;13.47;;;;;;;13.98;65.12;97496.44;5090382;28;20223;-62
2021/09/21 05:33:50;;;;;;;14.23;12.77;;;;;;;13.97;64.57;97504.50;5093130;28;20754;-64
2021/09/21 05:36:16;;;;;;;18.80;14.00;;;;;;;13.82;64.98;97507.81;5089711;28;20193;-63
2021/09/21 05:38:41;;;;;;;15.23;13.63;;;;;;;13.99;64.59;97507.81;5091572;28;20293;-65
2021/09/21 05:41:07;;;;;;;16.17;14.00;;;;;;;14.07;64.39;97509.59;5091406;28;20660;-65
2021/09/21 05:43:33;;;;;;;14.90;11.80;;;;;;;14.33;62.42;97513.84;5091531;28;20194;-65
2021/09/21 05:45:59;;;;;;;18.97;12.40;;;;;;;14.14;63.46;97510.56;5090964;28;20197;-65
2021/09/21 05:48:24;;;;;;;15.13;13.13;;;;;;;14.25;63.26;97507.56;5089804;28;20464;-66
2021/09/21 05:50:50;;;;;;;17.33;11.80;;;;;;;14.59;62.20;97517.06;5091230;28;20182;-64
2021/09/21 05:53:16;;;;;;;18.30;12.73;;;;;;;14.04;63.03;97512.56;5091692;28;20179;-65
2021/09/21 05:55:41;;;;;;;14.93;12.10;;;;;;;13.99;63.58;97510.44;5091393;28;20268;-67
2021/09/21 05:58:07;;;;;;;13.83;12.00;;;;;;;14.37;61.91;97515.13;5090702;28;20209;-67
2021/09/21 06:00:32;;;;;;;12.13;10.80;;;;;;;14.35;61.11;97514.50;5087974;28;20224;-65
2021/09/21 06:02:58;;;;;;;13.40;12.00;;;;;;;14.48;61.16;97511.31;5091572;28;20541;-64
2021/09/21 06:05:24;;;;;;;17.00;11.90;;;;;;;14.54;60.99;97522.00;5090284;28;20189;-66
2021/09/21 06:07:50;;;;;;;16.13;12.20;;;;;;;14.62;60.72;97510.63;5089462;28;20228;-66
2021/09/21 06:10:22;;;;;;;12.50;10.53;;;;;;;14.52;60.80;97505.53;5091875;28;20208;-64
2021/09/21 06:12:48;;;;;;;15.10;12.40;;;;;;;14.83;59.90;97504.78;5082757;28;20428;-65
2021/09/21 06:15:14;;;;;;;18.57;11.80;;;;;;;14.37;61.00;97510.69;5081974;28;20431;-66
2021/09/21 06:17:42;;;;;;;15.80;11.20;;;;;;;15.09;60.36;97510.75;5091122;28;20416;-66
2021/09/21 06:20:09;;;;;;;13.97;11.13;;;;;;;15.35;57.75;97494.59;5086096;28;20587;-66
2021/09/21 06:22:38;;;;;;;14.73;10.83;;;;;;;15.99;55.74;97493.47;5088110;28;20513;-66
2021/09/21 06:25:06;;;;;;;12.90;10.23;;;;;;;16.52;54.14;97497.84;5091358;28;20455;-65
2021/09/21 06:27:31;;;;;;;11.20;10.00;;;;;;;15.99;55.42;97514.59;5089671;28;20454;-65
2021/09/21 06:29:57;;;;;;;11.70;10.50;;;;;;;15.87;55.64;97513.41;5091171;28;20439;-67
2021/09/21 06:32:22;;;;;;;14.80;10.83;;;;;;;16.48;54.71;97528.34;5091164;28;20173;-65
2021/09/21 06:34:48;;;;;;;13.30;9.90;;;;;;;16.97;52.88;97532.25;5090032;28;20196;-65
2021/09/21 06:37:14;;;;;;;12.80;10.23;;;;;;;17.53;51.08;97533.47;5082725;28;20488;-66
2021/09/21 06:39:41;;;;;;;11.40;10.20;;;;;;;16.69;52.83;97539.00;5090951;28;20295;-66
2021/09/21 06:42:07;;;;;;;13.83;10.80;;;;;;;15.69;56.13;97543.56;5089978;28;20435;-63
2021/09/21 06:44:33;;;;;;;11.07;9.90;;;;;;;15.47;56.88;97553.94;5091422;28;20431;-64
2021/09/21 06:46:58;;;;;;;13.00;11.40;;;;;;;15.60;56.56;97553.34;5091038;28;20981;-64
2021/09/21 06:49:24;;;;;;;13.60;10.90;;;;;;;15.70;56.60;97562.84;5090945;28;20216;-66
2021/09/21 06:51:50;;;;;;;15.07;11.00;;;;;;;15.35;57.69;97569.34;5090525;28;20272;-66
2021/09/21 06:54:15;;;;;;;11.80;10.37;;;;;;;15.00;58.65;97568.88;5090385;28;20189;-65
2021/09/21 06:56:41;;;;;;;12.23;10.40;;;;;;;15.82;56.23;97559.63;5091230;28;20178;-66
2021/09/21 06:59:07;;;;;;;11.93;10.73;;;;;;;16.42;54.64;97575.66;5090248;28;20197;-65
2021/09/21 07:01:32;;;;;;;11.33;10.10;;;;;;;16.54;53.73;97570.75;5090703;28;20174;-65
2021/09/21 07:03:58;;;;;;;12.90;11.60;;;;;;;15.93;55.29;97576.09;5091338;28;20181;-65
2021/09/21 07:06:23;;;;;;;13.43;11.17;;;;;;;16.05;54.85;97579.16;5093818;28;20656;-66
2021/09/21 07:08:49;;;;;;;11.83;10.63;;;;;;;16.48;54.08;97586.53;5094692;28;20212;-65
2021/09/21 07:11:15;;;;;;;12.00;10.80;;;;;;;16.74;52.76;97581.63;5094725;28;20220;-68
2021/09/21 07:13:40;;;;;;;12.60;10.83;;;;;;;16.62;52.89;97588.38;5099262;28;20181;-65
2021/09/21 07:16:07;;;;;;;11.60;10.40;;;;;;;16.57;53.09;97588.88;5111322;28;20208;-67
2021/09/21 07:18:33;;;;;;;15.80;10.33;;;;;;;16.27;53.19;97595.97;5111813;28;20170;-64
2021/09/21 07:20:58;;;;;;;20.00;10.37;;;;;;;15.59;55.58;97609.81;5114157;28;20419;-68
2021/09/21 07:23:24;;;;;;;12.33;10.70;;;;;;;15.91;54.76;97612.44;5109872;28;20170;-68
2021/09/21 07:25:50;;;;;;;17.30;10.70;;;;;;;16.37;53.42;97616.88;5105590;28;20235;-68
2021/09/21 07:28:15;;;;;;;13.63;9.57;;;;;;;16.49;53.41;97618.09;5094044;28;20201;-69
2021/09/21 07:30:41;;;;;;;15.60;10.47;;;;;;;15.75;54.93;97619.47;5094285;28;20500;-66
2021/09/21 07:33:12;;;;;;;11.13;9.67;;;;;;;16.22;53.92;97606.28;5098011;28;20585;-66
2021/09/21 07:35:38;;;;;;;13.47;9.77;;;;;;;16.62;52.79;97611.34;5094976;28;20222;-67
2021/09/21 07:38:04;;;;;;;12.23;10.73;;;;;;;16.17;53.35;97616.56;5093082;28;20423;-65
2021/09/21 07:40:30;;;;;;;12.03;9.47;;;;;;;16.28;53.79;97618.75;5094199;28;20197;-65
2021/09/21 07:42:56;;;;;;;11.20;9.97;;;;;;;16.56;52.86;97626.13;5094360;28;20202;-67
2021/09/21 07:45:22;;;;;;;11.57;9.40;;;;;;;16.47;52.93;97632.50;5094601;28;20790;-66
2021/09/21 07:47:48;;;;;;;13.30;9.97;;;;;;;16.40;53.17;97633.22;5093564;28;20197;-66
2021/09/21 07:50:15;;;;;;;10.60;9.30;;;;;;;16.65;52.08;97640.91;5092525;28;20198;-65
2021/09/21 07:52:40;;;;;;;15.10;11.00;;;;;;;16.53;51.88;97643.19;5093976;28;20412;-66
2021/09/21 07:55:06;;;;;;;12.20;9.80;;;;;;;16.66;51.27;97639.09;5093455;28;20415;-66
2021/09/21 07:57:32;;;;;;;11.03;9.83;;;;;;;16.32;52.15;97635.94;5093670;28;20217;-64
2021/09/21 07:59:58;;;;;;;12.43;10.37;;;;;;;15.83;53.12;97645.00;5092895;28;20432;-67
2021/09/21 08:02:23;;;;;;;11.47;9.80;;;;;;;16.02;53.41;97646.41;5093585;28;20178;-65
2021/09/21 08:04:49;;;;;;;11.33;9.87;;;;;;;16.35;51.27;97638.22;5093304;28;20205;-67
2021/09/21 08:07:14;;;;;;;10.10;9.10;;;;;;;16.92;50.18;97646.59;5091215;28;20205;-65
2021/09/21 08:09:44;;;;;;;11.87;9.97;;;;;;;17.10;49.84;97648.91;5093408;28;20236;-65
2021/09/21 08:12:10;;;;;;;11.30;9.50;;;;;;;16.23;51.97;97650.22;5093423;28;20177;-66
2021/09/21 08:14:38;;;;;;;15.00;9.80;;;;;;;16.46;49.25;97657.31;5093388;28;21047;-65
2021/09/21 08:17:05;;;;;;;11.27;9.00;;;;;;;17.03;47.39;97659.41;5090739;28;20210;-66
2021/09/21 08:19:31;;;;;;;9.37;8.53;;;;;;;17.37;45.94;97667.00;5092814;28;20440;-65
2021/09/21 08:21:57;;;;;;;9.90;8.90;;;;;;;17.32;46.78;97670.19;5093745;28;20420;-62
2021/09/21 08:24:22;;;;;;;9.77;8.80;;;;;;;17.34;47.21;97661.06;5093673;28;20181;-67
2021/09/21 08:26:48;;;;;;;11.60;10.50;;;;;;;17.48;47.27;97662.03;5092885;28;20201;-66
2021/09/21 08:29:13;;;;;;;16.90;8.70;;;;;;;17.27;47.30;97667.25;5085172;28;20670;-63
2021/09/21 08:31:40;;;;;;;13.53;9.17;;;;;;;17.59;46.12;97668.69;5093506;28;20190;-67
2021/09/21 08:34:06;;;;;;;9.33;8.33;;;;;;;17.15;45.58;97667.72;5091694;28;20223;-67
2021/09/21 08:36:35;;;;;;;9.80;8.43;;;;;;;17.35;44.79;97669.81;5092670;28;20525;-66
2021/09/21 08:39:01;;;;;;;8.97;8.17;;;;;;;17.65;44.74;97669.78;5092479;28;20201;-67
2021/09/21 08:41:29;;;;;;;9.23;8.33;;;;;;;17.60;44.24;97675.63;5092852;28;20443;-65
2021/09/21 08:43:54;;;;;;;9.40;8.40;;;;;;;17.40;44.34;97677.19;5090776;28;20189;-64
2021/09/21 08:46:20;;;;;;;8.67;7.83;;;;;;;17.71;42.78;97670.84;5092739;28;20424;-67
2021/09/21 08:48:45;;;;;;;10.03;8.00;;;;;;;18.15;42.15;97656.63;5092021;28;20213;-67
2021/09/21 08:51:11;;;;;;;9.70;7.87;;;;;;;17.86;42.41;97662.84;5089898;28;20266;-67
2021/09/21 08:53:37;;;;;;;7.70;6.90;;;;;;;17.65;41.73;97667.94;5092201;28;20173;-65
2021/09/21 08:56:02;;;;;;;7.87;7.07;;;;;;;17.76;40.85;97673.78;5092159;28;20225;-67
2021/09/21 08:58:28;;;;;;;8.10;7.30;;;;;;;18.58;39.87;97669.88;5092010;28;20177;-67
2021/09/21 09:00:54;;;;;;;8.40;7.33;;;;;;;18.27;40.15;97676.34;5092226;28;20676;-65
2021/09/21 09:03:20;;;;;;;7.90;7.10;;;;;;;18.37;39.80;97686.63;5090506;28;20620;-66
2021/09/21 09:05:49;;;;;;;9.00;7.60;;;;;;;17.76;40.33;97694.97;5092472;28;20181;-66
2021/09/21 09:08:27;;;;;;;7.60;6.90;;;;;;;18.60;39.54;97692.75;5082407;28;20455;-65
2021/09/21 09:10:53;;;;;;;9.03;7.20;;;;;;;18.41;39.54;97695.03;5091093;28;20435;-67
2021/09/21 09:13:19;;;;;;;8.33;6.67;;;;;;;18.20;39.77;97699.34;5090821;28;20427;-67
2021/09/21 09:15:54;;;;;;;7.33;6.57;;;;;;;18.00;40.05;97698.31;5092084;28;20213;-67
2021/09/21 09:18:25;;;;;;;7.03;6.33;;;;;;;18.57;38.79;97702.72;5092294;28;20477;-66
2021/09/21 09:20:51;;;;;;;8.70;7.90;;;;;;;18.10;40.26;97706.78;5090703;28;20424;-66
2021/09/21 09:23:17;;;;;;;6.43;5.87;;;;;;;18.77;39.11;97696.78;5091984;28;20431;-65
2021/09/21 09:25:48;;;;;;;8.10;7.13;;;;;;;18.33;39.80;97697.81;5092412;28;20863;-68
2021/09/21 09:28:24;;;;;;;7.57;6.87;;;;;;;18.99;38.76;97683.47;5090987;28;20270;-67
2021/09/21 09:30:51;;;;;;;7.87;7.17;;;;;;;18.42;40.36;97694.03;5090984;28;20530;-65
2021/09/21 09:33:17;;;;;;;8.67;6.60;;;;;;;18.80;38.97;97696.38;5092194;28;20408;-66
2021/09/21 09:35:44;;;;;;;8.10;6.83;;;;;;;18.92;38.76;97695.84;5092265;28;20806;-65
2021/09/21 09:38:18;;;;;;;12.50;7.40;;;;;;;18.05;40.30;97710.00;5091629;28;20845;-67
2021/09/21 09:40:55;;;;;;;9.90;6.83;;;;;;;18.79;39.03;97712.50;5077890;28;20442;-66
2021/09/21 09:43:24;;;;;;;7.80;7.00;;;;;;;18.81;39.59;97702.53;5092346;28;20416;-66
2021/09/21 09:45:52;;;;;;;7.63;6.93;;;;;;;18.26;40.41;97717.16;5092096;28;20939;-66
2021/09/21 09:48:20;;;;;;;8.33;7.50;;;;;;;18.19;39.93;97713.63;5091777;28;20513;-67
2021/09/21 09:50:48;;;;;;;8.03;7.10;;;;;;;18.47;39.93;97712.88;5090807;28;20432;-65
2021/09/21 09:53:14;;;;;;;8.43;7.47;;;;;;;18.60;39.74;97698.88;5092101;28;20420;-66
2021/09/21 09:55:41;;;;;;;8.47;7.67;;;;;;;18.91;39.31;97702.16;5090838;28;20422;-66
2021/09/21 09:58:07;;;;;;;9.10;8.20;;;;;;;18.60;39.49;97706.84;5089169;28;20170;-66
2021/09/21 10:00:34;;;;;;;10.73;7.53;;;;;;;19.13;38.99;97711.75;5091790;28;20483;-67
2021/09/21 10:03:01;;;;;;;10.60;8.13;;;;;;;19.36;38.05;97705.34;5091302;28;20511;-66
2021/09/21 10:05:29;;;;;;;11.70;7.80;;;;;;;19.37;38.60;97704.34;5091618;28;20782;-64
2021/09/21 10:07:56;;;;;;;10.77;7.03;;;;;;;19.45;38.74;97712.13;5088804;28;20516;-65
2021/09/21 10:10:22;;;;;;;10.67;8.20;;;;;;;19.41;38.25;97702.91;5091177;28;20934;-65
2021/09/21 10:12:48;;;;;;;8.43;7.63;;;;;;;19.46;38.08;97705.81;5092051;28;20427;-67
2021/09/21 10:15:14;;;;;;;10.23;7.00;;;;;;;19.60;38.37;97711.19;5064806;28;20173;-67
2021/09/21 10:17:50;;;;;;;10.00;7.30;;;;;;;20.04;37.87;97712.56;5089841;28;20439;-65
2021/09/21 10:20:16;;;;;;;9.43;8.43;;;;;;;19.89;37.33;97711.94;5083238;28;20447;-67
2021/09/21 10:22:50;;;;;;;9.83;8.80;;;;;;;19.80;37.77;97717.38;5089946;28;20898;-63
2021/09/21 10:25:15;;;;;;;10.30;9.30;;;;;;;20.10;37.29;97717.09;5089330;28;20273;-64
2021/09/21 10:27:41;;;;;;;8.30;7.40;;;;;;;19.64;37.90;97715.91;5091712;28;20531;-64
2021/09/21 10:30:09;;;;;;;9.17;8.03;;;;;;;19.60;37.97;97719.16;5091576;28;20223;-66
2021/09/21 10:33:01;;;;;;;8.67;7.87;;;;;;;19.54;38.46;97722.59;5091354;28;20652;-66
2021/09/21 10:35:31;;;;;;;8.40;7.60;;;;;;;19.73;37.94;97721.03;5085300;28;20509;-65
2021/09/21 10:38:07;;;;;;;8.00;7.20;;;;;;;19.95;37.56;97725.25;5089217;28;20427;-66
2021/09/21 10:40:41;;;;;;;8.13;7.03;;;;;;;20.26;36.89;97718.56;5094325;28;20442;-67
2021/09/21 10:43:22;;;;;;;27.90;11.20;;;;;;;20.52;36.66;97716.16;5094779;28;20922;-66
2021/09/21 10:45:49;;;;;;;9.90;8.00;;;;;;;20.19;36.69;97727.56;5093945;28;20411;-67
2021/09/21 10:48:20;;;;;;;9.80;8.40;;;;;;;19.58;37.41;97723.84;5076464;28;20850;-66
2021/09/21 10:50:54;;;;;;;12.80;9.13;;;;;;;18.94;38.83;97728.38;5095303;28;20435;-68
2021/09/21 10:53:21;;;;;;;8.83;7.40;;;;;;;19.53;37.98;97721.78;5094648;28;20415;-67
2021/09/21 10:56:07;;;;;;;14.70;8.27;;;;;;;19.62;37.83;97719.78;5093632;28;20752;-67
2021/09/21 10:58:33;;;;;;;8.10;7.20;;;;;;;20.19;37.40;97716.91;5093214;28;20577;-67
2021/09/21 11:01:00;;;;;;;9.23;8.03;;;;;;;19.78;37.58;97719.41;5098465;28;20426;-67
2021/09/21 11:03:27;;;;;;;9.80;7.97;;;;;;;18.50;39.43;97725.75;5096500;28;20437;-66
2021/09/21 11:05:54;;;;;;;14.60;8.33;;;;;;;19.71;37.88;97718.59;5093392;28;20484;-66
2021/09/21 11:08:26;;;;;;;7.90;7.10;;;;;;;18.81;39.10;97729.88;5094431;28;20479;-64
2021/09/21 11:10:54;;;;;;;8.40;7.30;;;;;;;18.03;40.59;97737.72;5095306;28;20819;-65
2021/09/21 11:13:23;;;;;;;8.03;7.23;;;;;;;18.96;39.14;97721.03;5094516;28;20412;-68
2021/09/21 11:15:49;;;;;;;7.47;6.70;;;;;;;19.08;39.24;97719.47;5094540;28;20814;-67
2021/09/21 11:18:17;;;;;;;7.90;7.20;;;;;;;20.22;36.91;97713.84;5094901;28;20412;-66
2021/09/21 11:20:55;;;;;;;10.63;7.00;;;;;;;20.12;37.18;97711.56;5094883;28;20197;-67
2021/09/21 11:23:26;;;;;;;7.87;7.07;;;;;;;19.93;36.81;97705.19;5096736;28;20454;-67
2021/09/21 11:25:55;;;;;;;10.33;6.80;;;;;;;19.44;37.52;97715.00;5095767;28;20989;-65
2021/09/21 11:28:20;;;;;;;7.17;6.47;;;;;;;18.93;39.26;97718.72;5095268;28;20915;-64
2021/09/21 11:30:46;;;;;;;7.90;6.60;;;;;;;19.31;38.72;97710.41;5093724;28;20527;-66
2021/09/21 11:33:17;;;;;;;8.10;7.30;;;;;;;19.58;38.41;97726.50;5093477;28;20177;-67